Time;durP1;ratioP1;P1;durP2;ratioP2;P2;SDS_P1;SDS_P2;PMS_P1;PMS_P2;Temp;Humidity;BMP_temperature;BMP_pressure;BME280_temperature;BME280_humidity;BME280_pressure;Samples;Min_cycle;Max_cycle;Signal;HPM_P1;HPM_P2
2022/08/29 00:00:33;;;;;;;6.07;4.67;;;23.50;84.10;;;23.83;50.73;98825.25;5036041;27;112956;-77
2022/08/29 00:03:05;;;;;;;5.10;4.13;;;23.50;84.20;;;23.81;50.65;98828.47;5017500;28;124161;-76
2022/08/29 00:05:36;;;;;;;5.03;4.53;;;23.50;84.30;;;23.80;50.76;98832.50;5014388;28;122908;-77
2022/08/29 00:08:04;;;;;;;6.40;4.83;;;23.40;84.40;;;23.79;50.78;98836.53;5020946;28;114302;-79
2022/08/29 00:10:52;;;;;;;7.37;4.83;;;23.40;84.50;;;23.76;50.96;98826.03;5019733;28;113848;-78
2022/08/29 00:13:39;;;;;;;8.73;4.80;;;23.40;84.70;;;23.73;50.88;98826.84;5015271;28;124131;-79
2022/08/29 00:16:05;;;;;;;7.30;4.83;;;23.40;84.80;;;23.72;50.96;98830.06;5020373;28;123721;-76
2022/08/29 00:18:33;;;;;;;10.53;5.00;;;23.30;84.80;;;23.71;51.15;98832.09;5019106;28;113691;-77
2022/08/29 00:21:02;;;;;;;7.33;4.67;;;23.30;85.00;;;23.70;51.12;98838.91;5021179;28;114159;-81
2022/08/29 00:23:28;;;;;;;9.53;5.10;;;23.30;85.10;;;23.70;51.24;98826.81;5023161;28;124736;-78
2022/08/29 00:25:56;;;;;;;7.20;5.37;;;23.20;85.10;;;23.68;51.40;98835.69;5021128;28;124109;-80
2022/08/29 00:28:23;;;;;;;7.43;5.37;;;23.30;85.40;;;23.67;51.50;98836.06;5018236;28;114284;-77
2022/08/29 00:30:50;;;;;;;7.20;5.40;;;23.30;85.60;;;23.64;51.41;98834.84;5019897;27;113652;-77
2022/08/29 00:33:16;;;;;;;5.53;4.73;;;23.20;85.70;;;23.60;51.68;98840.50;5008959;28;123210;-77
2022/08/29 00:35:45;;;;;;;7.17;5.77;;;23.20;85.70;;;23.56;51.66;98833.22;5015207;27;123711;-77
2022/08/29 00:38:15;;;;;;;7.53;5.63;;;23.20;85.90;;;23.51;51.77;98831.63;5010479;28;114350;-77
2022/08/29 00:40:54;;;;;;;7.07;5.23;;;23.20;86.30;;;23.50;51.95;98832.00;5013080;28;114643;-79
2022/08/29 00:43:32;;;;;;;9.90;6.00;;;23.10;86.30;;;23.47;52.12;98833.59;5015041;27;124241;-77
2022/08/29 00:46:30;;;;;;;7.00;5.20;;;23.10;86.50;;;23.44;52.18;98836.41;5015144;28;123925;-78
2022/08/29 00:49:04;;;;;;;7.40;4.90;;;23.10;86.70;;;23.42;52.21;98838.81;5013264;28;115083;-79
2022/08/29 00:51:31;;;;;;;7.70;5.30;;;23.10;86.90;;;23.41;52.43;98842.88;5011841;28;113934;-77
2022/08/29 00:54:07;;;;;;;7.80;5.87;;;23.00;87.00;;;23.38;52.43;98838.81;5013572;28;123206;-77
2022/08/29 00:56:36;;;;;;;7.50;5.93;;;23.00;87.30;;;23.37;52.46;98834.38;5018259;28;122290;-77
2022/08/29 00:59:13;;;;;;;8.87;5.37;;;23.00;87.40;;;23.35;52.66;98837.59;5010036;28;114287;-76
2022/08/29 01:01:39;;;;;;;6.73;5.67;;;23.00;87.70;;;23.34;52.72;98844.44;5007192;28;113919;-77
2022/08/29 01:04:06;;;;;;;7.70;5.53;;;23.00;87.80;;;23.35;53.09;98845.25;5008561;28;124042;-77
2022/08/29 01:06:34;;;;;;;6.00;5.33;;;22.90;87.90;;;23.34;53.14;98854.91;5009512;28;123194;-77
2022/08/29 01:09:02;;;;;;;6.97;5.83;;;22.90;88.10;;;23.32;53.09;98849.69;4995994;28;113503;-78
2022/08/29 01:14:18;;;;;;;7.50;5.50;;;22.90;88.40;;;23.28;53.20;98848.03;5013776;28;124306;-77
2022/08/29 01:16:48;;;;;;;9.73;6.27;;;22.90;88.50;;;23.26;53.20;98854.06;5014840;28;123846;-76
2022/08/29 01:19:38;;;;;;;7.03;5.27;;;22.90;88.60;;;23.22;53.39;98847.63;5007640;28;113518;-77
2022/08/29 01:22:28;;;;;;;6.97;5.47;;;22.80;88.70;;;23.18;53.19;98854.44;5013007;28;113817;-77
2022/08/29 01:24:57;;;;;;;7.27;5.20;;;22.80;88.70;;;23.14;53.25;98858.06;5014802;27;124352;-76
2022/08/29 01:27:29;;;;;;;6.73;5.40;;;22.80;88.70;;;23.13;52.96;98856.44;5005520;28;123236;-78
2022/08/29 01:29:56;;;;;;;6.73;5.20;;;22.80;88.80;;;23.12;53.10;98860.47;5005706;28;114459;-76
2022/08/29 01:32:24;;;;;;;7.77;5.63;;;22.80;88.80;;;23.13;52.92;98866.91;5011442;27;115047;-76
2022/08/29 01:34:51;;;;;;;7.10;5.53;;;22.70;88.80;;;23.14;52.88;98851.63;5009763;28;125339;-77
2022/08/29 01:37:19;;;;;;;5.07;4.57;;;22.70;88.70;;;23.13;52.82;98862.09;5008623;28;123874;-77
2022/08/29 01:39:45;;;;;;;9.10;4.57;;;22.70;88.60;;;23.12;52.64;98856.84;5007298;28;114229;-76
2022/08/29 01:42:17;;;;;;;6.97;4.80;;;22.70;88.30;;;23.07;52.54;98851.56;5018492;28;113605;-76
2022/08/29 01:44:56;;;;;;;6.50;4.77;;;22.60;87.80;;;23.05;52.43;98849.16;5023078;27;124563;-77
2022/08/29 01:47:27;;;;;;;6.80;5.23;;;21.90;87.10;;;23.03;52.00;98854.38;5027818;28;123254;-77
2022/08/29 01:49:54;;;;;;;7.77;4.40;;;22.60;87.70;;;23.01;52.42;98862.41;5027378;28;114320;-77
2022/08/29 01:52:21;;;;;;;6.87;5.13;;;22.60;88.30;;;22.99;52.22;98858.38;5027294;27;113929;-76
2022/08/29 01:54:48;;;;;;;7.93;4.60;;;22.60;87.70;;;22.96;52.14;98853.50;5017281;28;125211;-76
2022/08/29 01:57:16;;;;;;;6.80;5.13;;;22.60;87.70;;;22.94;52.15;98859.53;5020729;28;124242;-77
2022/08/29 01:59:44;;;;;;;4.90;4.40;;;22.50;87.60;;;22.90;52.17;98853.88;5015523;28;114367;-76
2022/08/29 02:02:30;;;;;;;6.60;4.60;;;22.50;87.60;;;22.87;52.24;98854.66;5011012;27;114601;-79
2022/08/29 02:04:57;;;;;;;4.53;4.00;;;22.50;87.50;;;22.86;52.24;98861.50;5022292;27;123981;-77
2022/08/29 02:07:25;;;;;;;7.67;4.50;;;22.50;87.60;;;22.84;52.26;98860.28;5038722;27;123652;-83
2022/08/29 02:09:52;;;;;;;5.37;4.43;;;22.40;87.60;;;22.84;52.43;98865.94;5039013;28;114980;-82
2022/08/29 02:12:19;;;;;;;7.87;4.40;;;22.40;87.70;;;22.82;52.57;98860.66;5024076;28;114300;-78
2022/08/29 02:14:47;;;;;;;8.60;4.47;;;22.40;87.80;;;22.82;52.25;98857.84;5014886;28;123837;-77
2022/08/29 02:17:14;;;;;;;5.77;4.40;;;22.40;87.80;;;22.80;52.43;98860.25;5018928;28;123829;-77
2022/08/29 02:19:41;;;;;;;9.00;5.37;;;22.40;87.80;;;22.78;52.40;98868.28;5014965;28;114750;-76
2022/08/29 02:22:09;;;;;;;6.80;5.17;;;22.40;87.90;;;22.76;52.47;98865.06;5011666;28;114893;-77
2022/08/29 02:24:36;;;;;;;8.93;5.20;;;22.40;88.00;;;22.75;52.51;98862.63;5015736;28;124728;-77
2022/08/29 02:27:03;;;;;;;6.80;5.10;;;22.30;87.90;;;22.70;52.63;98859.00;5016972;28;125392;-80
2022/08/29 02:29:30;;;;;;;7.37;5.17;;;22.30;87.90;;;22.67;52.57;98867.41;5022028;27;114322;-79
2022/08/29 02:31:56;;;;;;;6.70;4.37;;;22.30;88.00;;;22.64;52.74;98859.75;5030088;27;114159;-79
2022/08/29 02:34:44;;;;;;;7.50;4.30;;;22.30;88.00;;;22.62;52.90;98848.06;5022369;28;124277;-78
2022/08/29 02:37:11;;;;;;;4.87;3.90;;;22.30;88.10;;;22.62;52.44;98859.31;5021656;28;123786;-79
2022/08/29 02:39:38;;;;;;;7.30;4.80;;;22.20;88.10;;;22.59;52.63;98855.28;5030447;28;113748;-77
2022/08/29 02:42:05;;;;;;;7.03;4.83;;;22.20;88.10;;;22.60;52.59;98844.84;5020409;28;114455;-79
2022/08/29 02:44:31;;;;;;;5.40;4.47;;;22.20;88.10;;;22.58;52.53;98848.03;5020535;28;124211;-77
2022/08/29 02:46:58;;;;;;;7.53;4.40;;;22.20;88.00;;;22.56;52.54;98852.44;5015561;28;123564;-77
2022/08/29 02:49:24;;;;;;;7.00;4.97;;;22.20;87.90;;;22.54;52.58;98854.84;5010938;28;114249;-77
2022/08/29 02:51:50;;;;;;;4.93;4.30;;;22.10;87.80;;;22.52;52.58;98855.25;5022987;27;114018;-77
2022/08/29 02:54:17;;;;;;;7.93;5.00;;;22.10;87.90;;;22.50;52.32;98844.38;5019636;27;124788;-81
2022/08/29 02:56:44;;;;;;;6.30;4.13;;;22.10;87.90;;;22.49;52.53;98851.22;5013352;28;123702;-80
2022/08/29 02:59:11;;;;;;;7.23;4.33;;;22.10;87.90;;;22.46;52.39;98846.38;5015907;28;114034;-78
2022/08/29 03:01:37;;;;;;;5.13;4.63;;;22.00;87.80;;;22.43;52.61;98849.97;5017793;28;113969;-78
2022/08/29 03:04:04;;;;;;;5.93;3.90;;;22.00;87.90;;;22.41;52.73;98848.75;5010184;28;124076;-77
2022/08/29 03:06:31;;;;;;;5.20;4.37;;;22.00;87.90;;;22.39;52.48;98843.50;5011993;28;124245;-76
2022/08/29 03:08:58;;;;;;;7.07;4.27;;;22.00;88.00;;;22.39;52.76;98851.13;5021608;28;115281;-78
2022/08/29 03:11:25;;;;;;;5.73;4.20;;;22.00;88.10;;;22.37;52.77;98848.69;5016164;28;113855;-77
2022/08/29 03:13:52;;;;;;;9.23;3.73;;;22.00;88.10;;;22.36;52.95;98855.53;5017130;28;124529;-77
2022/08/29 03:16:18;;;;;;;4.80;4.07;;;22.00;88.20;;;22.35;52.64;98856.72;5013536;28;124294;-77
2022/08/29 03:18:45;;;;;;;6.57;4.47;;;21.90;88.10;;;22.33;52.47;98847.88;5028256;27;113286;-76
2022/08/29 03:21:19;;;;;;;5.00;4.23;;;21.90;88.00;;;22.29;52.61;98855.47;5017928;28;113762;-77
2022/08/29 03:23:47;;;;;;;6.00;4.30;;;21.90;88.00;;;22.24;52.53;98855.81;5016632;28;124237;-77
2022/08/29 03:26:14;;;;;;;6.70;4.60;;;21.90;87.90;;;22.22;52.31;98847.00;5012445;28;123673;-77
2022/08/29 03:28:41;;;;;;;9.93;4.97;;;21.90;87.90;;;22.18;52.84;98852.56;5009264;28;114849;-79
2022/08/29 03:31:08;;;;;;;9.63;4.20;;;21.90;88.00;;;22.19;52.77;98850.56;5016335;28;113734;-78
2022/08/29 03:33:35;;;;;;;5.27;4.37;;;21.80;87.90;;;22.16;52.80;98845.69;5029463;27;122893;-76
2022/08/29 03:36:03;;;;;;;5.30;4.80;;;21.80;88.00;;;22.13;52.59;98843.66;5017385;28;124288;-77
2022/08/29 03:38:29;;;;;;;4.93;4.10;;;21.70;87.90;;;22.12;52.93;98856.13;5019555;28;114535;-77
2022/08/29 03:40:56;;;;;;;7.63;4.10;;;21.70;88.00;;;22.10;52.91;98850.06;5011756;28;113905;-76
2022/08/29 03:43:23;;;;;;;6.40;4.57;;;21.70;87.90;;;22.09;52.83;98854.06;5014605;28;123773;-76
2022/08/29 03:45:49;;;;;;;5.00;4.13;;;21.70;88.00;;;22.06;53.00;98866.91;5011779;28;123626;-77
2022/08/29 03:48:16;;;;;;;7.53;4.63;;;21.70;88.10;;;22.03;53.02;98860.06;5012196;28;114372;-76
2022/08/29 03:50:42;;;;;;;6.63;4.67;;;21.70;88.30;;;22.02;53.25;98869.69;5009146;28;113969;-77
2022/08/29 03:53:09;;;;;;;6.10;3.83;;;21.60;88.30;;;22.01;52.93;98876.50;5028731;27;124527;-80
2022/08/29 03:55:36;;;;;;;5.60;4.00;;;21.60;88.30;;;22.00;52.84;98869.28;5012049;28;123653;-77
2022/08/29 03:58:03;;;;;;;6.10;4.50;;;21.60;88.50;;;21.99;53.18;98867.66;5017000;28;116774;-78
2022/08/29 04:00:30;;;;;;;5.90;4.17;;;21.60;88.50;;;22.00;53.06;98868.44;5016963;28;115432;-79
2022/08/29 04:02:57;;;;;;;6.03;4.30;;;21.60;88.60;;;21.97;52.98;98875.66;5010578;28;123839;-79
2022/08/29 04:05:24;;;;;;;7.40;5.10;;;21.60;88.70;;;21.97;53.46;98869.22;5021621;27;124513;-77
2022/08/29 04:07:56;;;;;;;6.00;5.10;;;21.60;88.70;;;21.94;53.10;98864.38;5012475;27;114723;-76
2022/08/29 04:10:28;;;;;;;8.67;5.30;;;21.50;88.70;;;21.91;53.37;98868.78;5011555;28;113956;-77
2022/08/29 04:12:55;;;;;;;5.50;4.53;;;21.50;88.70;;;21.88;53.43;98875.19;5014230;28;123755;-77
2022/08/29 04:15:24;;;;;;;7.23;5.27;;;21.50;88.90;;;21.88;53.36;98872.38;5026931;27;123253;-76
2022/08/29 04:17:54;;;;;;;6.80;5.13;;;21.50;89.00;;;21.88;53.58;98871.56;5010883;28;113670;-76
2022/08/29 04:20:24;;;;;;;8.20;4.87;;;21.50;89.20;;;21.88;53.51;98869.56;5009870;28;113959;-77
2022/08/29 04:22:53;;;;;;;9.90;4.30;;;21.50;89.30;;;21.89;53.67;98871.16;5007711;28;124084;-77
2022/08/29 04:25:21;;;;;;;5.77;4.60;;;21.40;89.30;;;21.91;53.27;98871.59;5007777;28;123948;-76
2022/08/29 04:27:48;;;;;;;5.50;4.23;;;21.50;89.50;;;21.94;53.54;98873.63;5017553;28;114286;-76
2022/08/29 04:30:20;;;;;;;5.73;4.50;;;21.50;89.40;;;21.94;53.14;98882.06;5025831;28;114156;-77
2022/08/29 04:32:47;;;;;;;10.40;5.03;;;21.50;89.30;;;21.92;53.27;98886.47;5008532;28;124159;-76
2022/08/29 04:35:15;;;;;;;6.83;4.17;;;21.40;89.10;;;21.86;53.17;98886.00;5010284;28;123853;-77
2022/08/29 04:37:43;;;;;;;7.00;4.50;;;21.40;89.10;;;21.83;53.56;98892.41;5009472;28;113875;-77
2022/08/29 04:40:17;;;;;;;7.33;4.43;;;21.40;89.20;;;21.84;53.55;98892.03;5019120;28;114107;-78
2022/08/29 04:42:45;;;;;;;9.50;4.97;;;21.40;89.30;;;21.88;53.53;98892.06;5009776;28;124254;-76
2022/08/29 04:45:18;;;;;;;6.43;4.80;;;21.40;89.30;;;21.87;53.14;98889.63;5012164;27;123836;-76
2022/08/29 04:47:45;;;;;;;8.43;5.00;;;21.40;89.20;;;21.85;53.57;98890.03;5008111;28;114832;-76
2022/08/29 04:50:17;;;;;;;6.77;4.80;;;21.40;89.10;;;21.82;53.13;98885.16;5017774;27;115096;-77
2022/08/29 04:52:43;;;;;;;6.33;5.00;;;21.40;89.20;;;21.79;53.28;98883.94;5016424;27;124141;-80
2022/08/29 04:55:11;;;;;;;6.07;5.00;;;21.40;89.20;;;21.79;53.23;98883.94;5010051;28;123889;-76
2022/08/29 04:57:38;;;;;;;8.03;5.53;;;21.30;89.20;;;21.80;53.51;98893.19;5008639;28;114358;-77
2022/08/29 05:00:12;;;;;;;7.80;4.77;;;21.30;89.30;;;21.79;53.15;98892.38;5008271;28;113764;-79
2022/08/29 05:02:41;;;;;;;5.93;4.60;;;21.30;89.30;;;21.82;53.45;98900.03;5014832;28;124101;-76
2022/08/29 05:05:10;;;;;;;5.90;4.80;;;21.30;89.30;;;21.83;53.10;98898.03;5010497;28;123922;-77
2022/08/29 05:07:37;;;;;;;10.10;4.40;;;21.30;89.20;;;21.82;53.28;98894.41;5014789;28;113850;-76
2022/08/29 05:10:14;;;;;;;9.27;4.63;;;21.30;89.10;;;21.81;53.08;98903.22;5009731;28;114075;-78
2022/08/29 05:12:40;;;;;;;6.27;4.40;;;21.30;89.00;;;21.79;53.00;98905.63;5022323;28;124452;-78
2022/08/29 05:15:08;;;;;;;6.60;4.07;;;21.30;88.80;;;21.78;52.90;98910.44;5019233;27;123856;-78
2022/08/29 05:17:35;;;;;;;6.67;4.77;;;21.30;89.40;;;21.79;52.92;98908.44;5011331;27;114344;-78
2022/08/29 05:20:05;;;;;;;5.70;4.60;;;21.30;88.90;;;21.81;53.11;98906.03;5016104;28;114089;-76
2022/08/29 05:22:33;;;;;;;7.00;5.03;;;21.30;89.00;;;21.82;53.01;98908.47;5010205;28;124525;-77
2022/08/29 05:25:01;;;;;;;7.80;5.13;;;21.30;89.00;;;21.83;53.16;98915.72;5014005;28;124012;-76
2022/08/29 05:27:28;;;;;;;9.40;7.63;;;21.30;89.10;;;21.84;53.22;98916.50;5019683;27;114203;-78
2022/08/29 05:29:55;;;;;;;12.27;6.77;;;21.30;89.30;;;21.84;53.50;98919.31;5032849;27;113979;-78
2022/08/29 05:32:21;;;;;;;10.20;5.93;;;21.30;89.40;;;21.84;53.34;98916.50;5016694;27;124629;-77
2022/08/29 05:34:48;;;;;;;6.77;4.83;;;21.30;89.30;;;21.82;53.17;98910.47;5017056;28;123554;-79
2022/08/29 05:37:19;;;;;;;6.90;5.40;;;21.30;89.10;;;21.81;53.38;98906.84;5035870;27;114130;-78
2022/08/29 05:39:47;;;;;;;6.07;4.40;;;21.30;89.10;;;21.81;53.15;98912.47;5019668;28;115064;-78
2022/08/29 05:42:15;;;;;;;5.10;4.10;;;21.30;88.90;;;21.79;52.77;98905.63;5011602;28;124675;-79
2022/08/29 05:44:42;;;;;;;5.80;4.97;;;21.50;88.70;;;21.77;52.49;98911.63;5010395;28;123841;-79
2022/08/29 05:47:12;;;;;;;6.53;4.73;;;21.30;88.40;;;21.77;52.41;98910.84;5023961;28;114387;-82
2022/08/29 05:49:41;;;;;;;6.57;5.13;;;21.30;88.30;;;21.79;52.77;98920.50;5012077;28;113160;-81
2022/08/29 05:52:09;;;;;;;7.47;4.43;;;21.30;88.30;;;21.82;52.88;98910.47;5025865;27;123959;-78
2022/08/29 05:54:39;;;;;;;8.30;5.57;;;21.40;88.40;;;21.89;52.80;98913.34;5021758;28;123772;-76
2022/08/29 05:57:09;;;;;;;9.50;6.27;;;21.40;88.50;;;21.95;52.72;98911.00;5011461;28;114793;-77
2022/08/29 05:59:37;;;;;;;9.87;5.20;;;21.40;88.60;;;22.02;52.82;98916.72;5014643;27;114075;-78
2022/08/29 06:02:05;;;;;;;9.73;5.90;;;21.40;89.30;;;22.06;52.86;98924.00;5027395;27;124220;-78
2022/08/29 06:04:32;;;;;;;7.00;5.03;;;21.50;88.80;;;22.10;52.57;98924.03;5011541;28;123467;-77
2022/08/29 06:06:59;;;;;;;10.20;5.60;;;21.50;88.80;;;22.15;52.37;98932.13;5011061;28;114359;-77
2022/08/29 06:09:25;;;;;;;9.40;5.50;;;21.50;88.70;;;22.17;52.38;98931.75;5026557;28;114440;-76
2022/08/29 06:11:52;;;;;;;9.47;5.40;;;21.60;88.60;;;22.19;52.27;98938.63;5028002;27;124199;-77
2022/08/29 06:14:19;;;;;;;10.77;5.63;;;21.60;88.50;;;22.21;52.32;98932.59;5028635;28;123828;-77
2022/08/29 06:16:46;;;;;;;12.30;6.00;;;21.60;88.50;;;22.25;52.08;98927.84;5010737;28;114445;-78
2022/08/29 06:19:12;;;;;;;8.30;5.90;;;21.70;88.50;;;22.31;52.15;98939.53;5013642;28;114021;-78
2022/08/29 06:21:39;;;;;;;5.93;4.70;;;21.70;88.40;;;22.34;52.00;98942.38;5017387;28;124084;-79
2022/08/29 06:24:06;;;;;;;8.83;5.90;;;21.70;88.20;;;22.37;52.01;98947.22;5017871;27;123762;-77
2022/08/29 06:26:34;;;;;;;5.70;5.10;;;21.80;88.30;;;22.43;51.68;98948.50;5012991;28;115242;-79
2022/08/29 06:29:06;;;;;;;7.83;5.30;;;21.80;88.20;;;22.50;51.76;98937.28;5012634;28;114519;-76
2022/08/29 06:31:33;;;;;;;7.73;5.83;;;21.90;88.20;;;22.59;51.59;98933.34;5015067;28;123788;-77
2022/08/29 06:34:03;;;;;;;10.67;5.70;;;21.90;88.10;;;22.65;51.40;98941.06;5012997;28;123805;-78
2022/08/29 06:36:32;;;;;;;10.77;6.13;;;22.00;87.90;;;22.69;51.28;98946.69;5009711;28;113345;-78
2022/08/29 06:39:03;;;;;;;10.13;6.23;;;22.00;87.60;;;22.72;51.11;98941.09;5014341;28;114140;-78
2022/08/29 06:41:29;;;;;;;7.80;5.70;;;22.10;87.50;;;22.78;50.87;98941.53;5015063;28;123214;-77
2022/08/29 06:43:57;;;;;;;11.20;5.47;;;22.10;87.20;;;22.82;50.88;98945.19;5021332;28;124285;-87
2022/08/29 06:46:42;;;;;;;9.43;5.67;;;22.20;87.10;;;22.88;50.46;98949.25;5013345;28;114821;-82
2022/08/29 06:49:13;;;;;;;10.83;6.47;;;22.20;86.90;;;22.93;50.33;98948.09;5018782;28;114326;-82
2022/08/29 06:51:43;;;;;;;7.90;5.50;;;22.30;86.80;;;22.96;50.13;98952.13;5014288;27;125341;-81
2022/08/29 06:54:11;;;;;;;10.30;5.17;;;22.30;86.50;;;23.00;49.90;98944.53;5012779;28;124210;-79
2022/08/29 06:56:38;;;;;;;8.97;5.77;;;22.30;86.30;;;23.06;49.97;98948.59;5010569;28;114289;-77
2022/08/29 06:59:06;;;;;;;10.90;6.07;;;22.40;86.40;;;23.16;49.79;98950.69;5013677;28;114353;-77
2022/08/29 07:01:33;;;;;;;17.10;5.63;;;22.40;86.30;;;23.23;49.58;98947.91;5002804;28;122920;-80
2022/08/29 07:04:00;;;;;;;11.97;6.97;;;22.50;86.00;;;23.29;49.45;98937.88;5014920;28;124022;-78
2022/08/29 07:06:27;;;;;;;12.37;6.73;;;22.60;85.60;;;23.30;49.11;98942.31;5030653;28;114420;-83
2022/08/29 07:08:56;;;;;;;9.23;5.87;;;22.60;85.30;;;23.29;49.03;98949.16;5019940;27;114439;-81
2022/08/29 07:11:26;;;;;;;10.50;6.53;;;22.50;85.00;;;23.33;48.95;98946.34;5019918;28;124164;-83
2022/08/29 07:14:01;;;;;;;16.57;7.37;;;22.60;85.10;;;23.35;49.00;98949.59;5028344;28;123319;-78
2022/08/29 07:16:28;;;;;;;13.33;7.10;;;22.70;84.90;;;23.37;48.82;98956.44;5024279;28;115311;-80
2022/08/29 07:18:55;;;;;;;11.43;6.73;;;22.70;84.80;;;23.42;48.73;98951.63;5027117;28;114984;-78
2022/08/29 07:21:25;;;;;;;10.80;6.57;;;22.70;84.60;;;23.43;48.56;98958.88;5022059;28;123981;-78
2022/08/29 07:23:54;;;;;;;7.80;5.20;;;22.70;84.50;;;23.49;48.79;98957.31;5025646;28;124294;-78
2022/08/29 07:26:23;;;;;;;8.27;5.03;;;22.80;84.60;;;23.56;48.67;98954.50;5022356;28;114411;-79
2022/08/29 07:28:53;;;;;;;6.37;5.00;;;22.90;85.10;;;23.62;48.56;98950.13;5025522;28;114023;-78
2022/08/29 07:31:20;;;;;;;9.87;5.23;;;22.90;84.40;;;23.72;48.25;98954.19;5018891;28;124711;-78
2022/08/29 07:33:47;;;;;;;7.43;5.00;;;23.00;84.40;;;23.79;48.38;98954.22;5039954;27;126493;-79
2022/08/29 07:36:14;;;;;;;13.93;5.73;;;23.10;84.20;;;23.85;48.09;98963.13;5021396;28;114206;-78
2022/08/29 07:38:40;;;;;;;9.90;4.73;;;23.10;83.80;;;23.88;48.25;98954.66;5023877;28;114347;-81
2022/08/29 07:41:13;;;;;;;6.27;4.60;;;23.20;83.90;;;23.97;48.12;98954.31;5033740;27;123847;-78
2022/08/29 07:43:41;;;;;;;9.10;4.97;;;23.80;84.40;;;24.06;47.80;98956.72;5008494;28;124830;-82
2022/08/29 07:46:14;;;;;;;9.30;6.07;;;23.30;83.70;;;24.10;47.51;98969.66;5013617;27;114518;-78
2022/08/29 07:48:42;;;;;;;9.67;5.33;;;23.40;83.50;;;24.13;47.79;98960.38;5022347;28;114289;-81
2022/08/29 07:51:13;;;;;;;9.03;5.07;;;23.40;83.40;;;24.19;47.67;98961.59;5020529;28;124096;-83
2022/08/29 07:53:42;;;;;;;8.80;4.83;;;23.50;83.40;;;24.27;47.60;98958.81;5029276;27;123064;-82
2022/08/29 07:56:17;;;;;;;8.70;5.40;;;23.50;83.40;;;24.34;47.08;98950.31;5005833;28;113836;-84
2022/08/29 07:58:44;;;;;;;9.33;5.37;;;23.60;83.20;;;24.42;47.41;98958.41;5016125;27;113468;-84
2022/08/29 08:01:11;;;;;;;9.30;5.70;;;23.70;83.10;;;24.51;47.14;98943.91;5013181;27;124228;-81
2022/08/29 08:03:37;;;;;;;9.90;5.43;;;23.70;83.00;;;24.54;47.15;98947.97;5007743;28;124189;-80
2022/08/29 08:06:04;;;;;;;13.03;5.50;;;23.80;82.90;;;24.58;47.04;98955.22;5006835;28;115109;-79
2022/08/29 08:08:31;;;;;;;6.20;4.50;;;23.90;82.90;;;24.63;47.04;98957.63;5017393;28;114852;-80
2022/08/29 08:10:57;;;;;;;11.20;6.37;;;23.90;82.80;;;24.68;46.88;98954.41;5010573;27;124847;-78
2022/08/29 08:13:24;;;;;;;10.37;5.67;;;24.00;82.70;;;24.71;46.74;98960.47;5008191;28;124046;-78
2022/08/29 08:15:50;;;;;;;6.63;5.20;;;24.00;82.60;;;24.77;46.87;98958.84;5019581;28;114581;-82
2022/08/29 08:18:17;;;;;;;9.40;5.90;;;24.10;82.70;;;24.81;46.71;98968.13;5018605;28;113946;-79
2022/08/29 08:20:47;;;;;;;7.23;5.43;;;24.10;82.30;;;24.85;46.88;98957.63;5022208;28;124099;-84
2022/08/29 08:23:17;;;;;;;8.37;5.47;;;24.10;82.30;;;24.89;46.72;98964.91;5016298;28;123866;-82
2022/08/29 08:25:44;;;;;;;9.00;5.10;;;24.20;81.90;;;24.92;46.77;98951.97;5024113;28;114578;-77
2022/08/29 08:28:14;;;;;;;8.93;6.13;;;24.20;81.80;;;24.95;46.54;98962.47;5019486;28;114153;-78
2022/08/29 08:30:41;;;;;;;8.53;6.17;;;24.20;81.50;;;24.98;46.52;98955.19;5018093;28;124110;-79
2022/08/29 08:33:08;;;;;;;14.33;5.90;;;24.30;81.50;;;25.00;46.33;98961.25;5025069;28;122334;-81
2022/08/29 08:35:37;;;;;;;11.17;6.40;;;24.30;81.50;;;25.03;46.15;98958.41;5013533;28;115579;-81
2022/08/29 08:38:05;;;;;;;12.33;5.90;;;24.40;81.40;;;25.04;46.62;98959.22;5012334;28;114482;-80
2022/08/29 08:40:31;;;;;;;9.83;5.40;;;24.40;81.40;;;25.10;46.59;98963.28;5009097;28;123753;-79
2022/08/29 08:43:01;;;;;;;9.60;5.80;;;24.40;81.50;;;25.17;46.35;98968.13;5014051;28;123961;-79
2022/08/29 08:45:41;;;;;;;7.40;4.80;;;24.50;81.50;;;25.21;46.27;98963.28;5011064;28;115446;-80
2022/08/29 08:48:19;;;;;;;8.70;5.33;;;24.60;81.20;;;25.30;46.07;98969.31;5016858;28;114098;-78
2022/08/29 08:51:17;;;;;;;12.77;4.53;;;24.70;81.40;;;25.38;45.91;98962.41;5013958;28;124395;-78
2022/08/29 08:53:47;;;;;;;6.87;4.03;;;24.80;81.30;;;25.46;45.81;98955.50;5026636;27;124185;-80
2022/08/29 08:56:32;;;;;;;7.27;4.63;;;24.80;81.00;;;25.52;45.67;98961.56;5024929;28;114947;-78
2022/08/29 08:59:16;;;;;;;9.07;4.90;;;24.90;80.80;;;25.54;45.89;98959.94;5011303;28;115015;-83
2022/08/29 09:02:04;;;;;;;6.80;5.00;;;24.90;80.50;;;25.52;45.45;98961.56;5016282;27;124235;-80
2022/08/29 09:04:47;;;;;;;9.13;5.80;;;24.90;80.80;;;25.48;45.60;98961.56;5017641;28;123845;-79
2022/08/29 09:07:55;;;;;;;12.60;6.17;;;24.90;80.20;;;25.38;45.68;98951.09;5015680;28;114330;-77
2022/08/29 09:10:35;;;;;;;8.50;5.67;;;24.90;79.70;;;25.42;45.63;98959.59;5027829;28;113139;-80
2022/08/29 09:13:40;;;;;;;7.73;5.60;;;24.80;80.00;;;25.47;45.67;98968.47;5018931;27;124112;-81
2022/08/29 09:16:29;;;;;;;7.53;5.30;;;24.90;79.90;;;25.48;45.68;98964.41;5022542;28;123665;-81
2022/08/29 09:19:04;;;;;;;7.33;5.37;;;24.90;79.70;;;25.51;45.91;98963.59;5026217;27;114131;-78
2022/08/29 09:21:38;;;;;;;8.13;5.03;;;24.90;80.00;;;25.60;45.18;98959.50;5024566;28;113210;-81
2022/08/29 09:24:11;;;;;;;6.73;5.07;;;25.00;79.80;;;25.63;45.01;98956.69;5017183;28;124776;-78
2022/08/29 09:26:38;;;;;;;6.30;5.00;;;25.10;79.70;;;25.66;45.18;98958.69;5015652;28;124342;-77
2022/08/29 09:29:07;;;;;;;10.97;6.00;;;25.10;79.50;;;25.70;45.58;98965.13;5017120;27;114349;-80
2022/08/29 09:31:34;;;;;;;8.97;5.20;;;25.10;79.40;;;25.72;45.26;98959.88;5024610;28;114231;-78
2022/08/29 09:34:14;;;;;;;7.83;5.30;;;25.10;79.30;;;25.76;45.56;98966.34;5024632;27;124082;-80
2022/08/29 09:36:48;;;;;;;9.17;5.20;;;25.20;79.30;;;25.81;45.24;98956.59;5023394;28;123984;-80
2022/08/29 09:39:28;;;;;;;8.63;5.30;;;25.20;78.90;;;25.81;44.82;98962.25;5019287;28;114361;-78
2022/08/29 09:41:57;;;;;;;5.00;4.40;;;25.30;78.60;;;25.82;44.55;98951.72;5023406;28;112973;-79
2022/08/29 09:44:30;;;;;;;6.27;4.67;;;25.20;78.40;;;25.86;44.47;98959.03;5019143;27;123376;-78
2022/08/29 09:47:32;;;;;;;6.43;4.27;;;25.30;78.40;;;25.87;44.38;98955.00;5014086;28;123120;-79
2022/08/29 09:50:25;;;;;;;10.80;5.33;;;25.30;78.10;;;25.90;44.36;98959.81;5017421;28;115566;-78
2022/08/29 09:52:58;;;;;;;8.90;5.83;;;25.40;77.80;;;25.95;44.37;98959.41;5017327;27;114757;-78
2022/08/29 09:55:45;;;;;;;8.20;4.73;;;25.40;77.70;;;25.96;44.61;98963.03;5018530;28;124200;-79
2022/08/29 09:58:20;;;;;;;10.73;5.40;;;25.40;77.70;;;26.03;44.09;98959.34;5017855;28;123767;-78
2022/08/29 10:01:00;;;;;;;7.30;5.03;;;25.50;77.80;;;26.08;44.61;98958.91;5017702;27;114399;-81
2022/08/29 10:03:33;;;;;;;8.40;5.37;;;25.50;77.70;;;26.13;44.52;98949.97;5011125;28;114302;-79
2022/08/29 10:06:19;;;;;;;11.47;5.40;;;25.50;77.60;;;26.14;44.14;98951.59;5016888;27;123360;-78
2022/08/29 10:09:32;;;;;;;6.90;4.50;;;25.60;77.50;;;26.15;44.38;98944.72;5012381;28;123975;-81
2022/08/29 10:12:13;;;;;;;9.47;5.50;;;25.60;77.50;;;26.25;43.16;98951.50;5023924;28;113726;-80
2022/08/29 10:14:54;;;;;;;9.10;5.60;;;25.70;76.20;;;26.28;43.74;98951.50;5017761;27;112836;-82
2022/08/29 10:18:20;;;;;;;7.80;5.00;;;25.70;76.20;;;26.27;43.47;98947.03;5009554;28;124494;-81
2022/08/29 10:21:00;;;;;;;8.00;4.37;;;25.80;75.80;;;26.32;42.71;98948.66;4976330;28;124240;-81
2022/08/29 10:23:52;;;;;;;7.30;4.30;;;25.70;75.20;;;26.35;43.08;98956.31;5011521;28;114357;-83
2022/08/29 10:26:33;;;;;;;5.83;4.30;;;25.80;75.00;;;26.43;42.79;98946.53;5012824;28;113683;-81
2022/08/29 10:29:37;;;;;;;7.37;4.70;;;25.90;75.30;;;26.48;42.53;98943.25;5023412;28;123434;-80
2022/08/29 10:32:35;;;;;;;6.47;4.80;;;26.00;74.90;;;26.58;42.68;98947.28;5012751;28;123932;-83